sensor_id;sensor_type;location;lat;lon;timestamp;P1;durP1;ratioP1;P2;durP2;ratioP2
28086;SDS011;15392;48.912;8.380;2023-06-04T00:02:03;0.80;;;0.80;;
28086;SDS011;15392;48.912;8.380;2023-06-04T00:04:28;0.90;;;0.90;;
28086;SDS011;15392;48.912;8.380;2023-06-04T00:06:55;1.10;;;1.10;;
28086;SDS011;15392;48.912;8.380;2023-06-04T00:09:21;1.08;;;1.08;;
28086;SDS011;15392;48.912;8.380;2023-06-04T00:11:47;0.90;;;0.90;;
28086;SDS011;15392;48.912;8.380;2023-06-04T00:14:13;1.02;;;1.02;;
28086;SDS011;15392;48.912;8.380;2023-06-04T00:16:40;1.02;;;1.02;;
28086;SDS011;15392;48.912;8.380;2023-06-04T00:19:06;1.10;;;1.10;;
28086;SDS011;15392;48.912;8.380;2023-06-04T00:21:32;0.90;;;0.90;;
28086;SDS011;15392;48.912;8.380;2023-06-04T00:23:58;0.90;;;0.90;;
28086;SDS011;15392;48.912;8.380;2023-06-04T00:26:25;1.10;;;1.10;;
28086;SDS011;15392;48.912;8.380;2023-06-04T00:28:51;0.98;;;0.98;;
28086;SDS011;15392;48.912;8.380;2023-06-04T00:31:17;1.08;;;1.08;;
28086;SDS011;15392;48.912;8.380;2023-06-04T00:33:42;1.00;;;1.00;;
28086;SDS011;15392;48.912;8.380;2023-06-04T00:36:08;0.90;;;0.90;;
28086;SDS011;15392;48.912;8.380;2023-06-04T00:38:34;0.77;;;0.77;;
28086;SDS011;15392;48.912;8.380;2023-06-04T00:41:00;0.90;;;0.90;;
28086;SDS011;15392;48.912;8.380;2023-06-04T00:43:25;1.08;;;1.08;;
28086;SDS011;15392;48.912;8.380;2023-06-04T00:45:54;0.90;;;0.90;;
28086;SDS011;15392;48.912;8.380;2023-06-04T00:48:20;1.08;;;0.90;;
28086;SDS011;15392;48.912;8.380;2023-06-04T00:50:47;0.88;;;0.88;;
28086;SDS011;15392;48.912;8.380;2023-06-04T00:53:13;0.80;;;0.80;;
28086;SDS011;15392;48.912;8.380;2023-06-04T00:55:40;0.90;;;0.90;;
28086;SDS011;15392;48.912;8.380;2023-06-04T00:58:06;0.88;;;0.88;;
28086;SDS011;15392;48.912;8.380;2023-06-04T01:00:34;0.80;;;0.80;;
28086;SDS011;15392;48.912;8.380;2023-06-04T01:03:03;0.90;;;0.90;;
28086;SDS011;15392;48.912;8.380;2023-06-04T01:05:41;0.90;;;0.90;;
28086;SDS011;15392;48.912;8.380;2023-06-04T01:08:15;0.95;;;0.95;;
28086;SDS011;15392;48.912;8.380;2023-06-04T01:10:51;1.08;;;1.08;;
28086;SDS011;15392;48.912;8.380;2023-06-04T01:13:18;0.88;;;0.88;;
28086;SDS011;15392;48.912;8.380;2023-06-04T01:15:44;0.80;;;0.80;;
28086;SDS011;15392;48.912;8.380;2023-06-04T01:18:09;0.73;;;0.73;;
28086;SDS011;15392;48.912;8.380;2023-06-04T01:20:43;0.85;;;0.85;;
28086;SDS011;15392;48.912;8.380;2023-06-04T01:23:54;0.85;;;0.85;;
28086;SDS011;15392;48.912;8.380;2023-06-04T01:26:14;0.93;;;0.93;;
28086;SDS011;15392;48.912;8.380;2023-06-04T01:28:40;0.77;;;0.77;;
28086;SDS011;15392;48.912;8.380;2023-06-04T01:31:08;0.70;;;0.70;;
28086;SDS011;15392;48.912;8.380;2023-06-04T01:33:34;1.00;;;1.00;;
28086;SDS011;15392;48.912;8.380;2023-06-04T01:36:00;0.90;;;0.90;;
28086;SDS011;15392;48.912;8.380;2023-06-04T01:38:26;0.93;;;0.93;;
28086;SDS011;15392;48.912;8.380;2023-06-04T01:40:52;0.98;;;0.98;;
28086;SDS011;15392;48.912;8.380;2023-06-04T01:43:21;1.10;;;1.10;;
28086;SDS011;15392;48.912;8.380;2023-06-04T01:45:48;0.90;;;0.90;;
28086;SDS011;15392;48.912;8.380;2023-06-04T01:48:14;0.80;;;0.80;;
28086;SDS011;15392;48.912;8.380;2023-06-04T01:50:40;0.93;;;0.93;;
28086;SDS011;15392;48.912;8.380;2023-06-04T01:53:06;2.05;;;0.85;;
28086;SDS011;15392;48.912;8.380;2023-06-04T01:55:31;0.93;;;0.93;;
28086;SDS011;15392;48.912;8.380;2023-06-04T01:57:58;0.80;;;0.80;;
28086;SDS011;15392;48.912;8.380;2023-06-04T02:00:25;0.90;;;0.90;;
28086;SDS011;15392;48.912;8.380;2023-06-04T02:02:51;1.20;;;1.00;;
28086;SDS011;15392;48.912;8.380;2023-06-04T02:05:18;0.80;;;0.80;;
28086;SDS011;15392;48.912;8.380;2023-06-04T02:07:44;1.00;;;1.00;;
28086;SDS011;15392;48.912;8.380;2023-06-04T02:10:13;0.75;;;0.75;;
28086;SDS011;15392;48.912;8.380;2023-06-04T02:12:41;0.73;;;0.73;;
28086;SDS011;15392;48.912;8.380;2023-06-04T02:15:22;0.60;;;0.60;;
28086;SDS011;15392;48.912;8.380;2023-06-04T02:17:49;0.73;;;0.73;;
28086;SDS011;15392;48.912;8.380;2023-06-04T02:20:16;0.88;;;0.88;;
28086;SDS011;15392;48.912;8.380;2023-06-04T02:22:42;0.77;;;0.77;;
28086;SDS011;15392;48.912;8.380;2023-06-04T02:25:08;1.75;;;0.90;;
28086;SDS011;15392;48.912;8.380;2023-06-04T02:27:34;0.80;;;0.80;;
28086;SDS011;15392;48.912;8.380;2023-06-04T02:30:00;0.90;;;0.90;;
28086;SDS011;15392;48.912;8.380;2023-06-04T02:32:31;0.77;;;0.77;;
28086;SDS011;15392;48.912;8.380;2023-06-04T02:34:58;1.00;;;1.00;;
28086;SDS011;15392;48.912;8.380;2023-06-04T02:37:24;1.00;;;1.00;;
28086;SDS011;15392;48.912;8.380;2023-06-04T02:39:50;0.90;;;0.90;;
28086;SDS011;15392;48.912;8.380;2023-06-04T02:42:15;1.10;;;1.10;;
28086;SDS011;15392;48.912;8.380;2023-06-04T02:44:41;0.80;;;0.80;;
28086;SDS011;15392;48.912;8.380;2023-06-04T02:47:07;0.75;;;0.75;;
28086;SDS011;15392;48.912;8.380;2023-06-04T02:49:33;0.80;;;0.80;;
28086;SDS011;15392;48.912;8.380;2023-06-04T02:51:58;1.00;;;1.00;;
28086;SDS011;15392;48.912;8.380;2023-06-04T02:54:24;1.08;;;1.02;;
28086;SDS011;15392;48.912;8.380;2023-06-04T02:56:50;0.82;;;0.82;;
28086;SDS011;15392;48.912;8.380;2023-06-04T02:59:16;0.80;;;0.80;;
28086;SDS011;15392;48.912;8.380;2023-06-04T03:01:42;1.10;;;1.10;;
28086;SDS011;15392;48.912;8.380;2023-06-04T03:04:08;0.80;;;0.80;;
28086;SDS011;15392;48.912;8.380;2023-06-04T03:06:35;0.90;;;0.90;;
28086;SDS011;15392;48.912;8.380;2023-06-04T03:09:04;0.90;;;0.90;;
28086;SDS011;15392;48.912;8.380;2023-06-04T03:11:30;0.98;;;0.98;;
28086;SDS011;15392;48.912;8.380;2023-06-04T03:13:55;0.73;;;0.73;;
28086;SDS011;15392;48.912;8.380;2023-06-04T03:16:21;0.88;;;0.88;;
28086;SDS011;15392;48.912;8.380;2023-06-04T03:18:47;0.93;;;0.93;;
28086;SDS011;15392;48.912;8.380;2023-06-04T03:21:13;0.95;;;0.95;;
28086;SDS011;15392;48.912;8.380;2023-06-04T03:23:39;1.00;;;1.00;;
28086;SDS011;15392;48.912;8.380;2023-06-04T03:26:06;0.95;;;0.90;;
28086;SDS011;15392;48.912;8.380;2023-06-04T03:28:32;1.02;;;1.00;;
28086;SDS011;15392;48.912;8.380;2023-06-04T03:30:58;0.98;;;0.98;;
28086;SDS011;15392;48.912;8.380;2023-06-04T03:33:25;0.93;;;0.93;;
28086;SDS011;15392;48.912;8.380;2023-06-04T03:35:51;1.10;;;1.10;;
28086;SDS011;15392;48.912;8.380;2023-06-04T03:38:23;0.85;;;0.85;;
28086;SDS011;15392;48.912;8.380;2023-06-04T03:40:50;0.80;;;0.80;;
28086;SDS011;15392;48.912;8.380;2023-06-04T03:43:18;0.90;;;0.90;;
28086;SDS011;15392;48.912;8.380;2023-06-04T03:45:44;1.00;;;1.00;;
28086;SDS011;15392;48.912;8.380;2023-06-04T03:48:10;0.80;;;0.80;;
28086;SDS011;15392;48.912;8.380;2023-06-04T03:50:36;0.77;;;0.77;;
28086;SDS011;15392;48.912;8.380;2023-06-04T03:53:02;1.15;;;1.15;;
28086;SDS011;15392;48.912;8.380;2023-06-04T03:55:31;1.00;;;1.00;;
28086;SDS011;15392;48.912;8.380;2023-06-04T03:57:58;0.90;;;0.90;;
28086;SDS011;15392;48.912;8.380;2023-06-04T04:00:24;0.80;;;0.80;;
28086;SDS011;15392;48.912;8.380;2023-06-04T04:02:50;0.93;;;0.93;;
28086;SDS011;15392;48.912;8.380;2023-06-04T04:05:16;0.80;;;0.80;;
28086;SDS011;15392;48.912;8.380;2023-06-04T04:07:42;1.00;;;1.00;;
28086;SDS011;15392;48.912;8.380;2023-06-04T04:10:07;0.80;;;0.80;;
28086;SDS011;15392;48.912;8.380;2023-06-04T04:12:34;0.90;;;0.90;;
28086;SDS011;15392;48.912;8.380;2023-06-04T04:15:00;0.68;;;0.68;;
28086;SDS011;15392;48.912;8.380;2023-06-04T04:17:26;0.90;;;0.90;;
28086;SDS011;15392;48.912;8.380;2023-06-04T04:19:52;0.80;;;0.80;;
28086;SDS011;15392;48.912;8.380;2023-06-04T04:22:18;0.90;;;0.90;;
28086;SDS011;15392;48.912;8.380;2023-06-04T04:24:44;0.80;;;0.80;;
28086;SDS011;15392;48.912;8.380;2023-06-04T04:27:10;0.70;;;0.70;;
28086;SDS011;15392;48.912;8.380;2023-06-04T04:29:41;1.08;;;0.98;;
28086;SDS011;15392;48.912;8.380;2023-06-04T04:32:08;0.80;;;0.80;;
28086;SDS011;15392;48.912;8.380;2023-06-04T04:34:37;0.80;;;0.80;;
28086;SDS011;15392;48.912;8.380;2023-06-04T04:37:07;0.90;;;0.90;;
28086;SDS011;15392;48.912;8.380;2023-06-04T04:39:34;0.75;;;0.75;;
28086;SDS011;15392;48.912;8.380;2023-06-04T04:42:03;0.65;;;0.65;;
28086;SDS011;15392;48.912;8.380;2023-06-04T04:44:29;0.70;;;0.70;;
28086;SDS011;15392;48.912;8.380;2023-06-04T04:46:55;0.90;;;0.90;;
28086;SDS011;15392;48.912;8.380;2023-06-04T04:49:20;0.70;;;0.70;;
28086;SDS011;15392;48.912;8.380;2023-06-04T04:51:46;0.80;;;0.80;;
28086;SDS011;15392;48.912;8.380;2023-06-04T04:54:12;0.90;;;0.90;;
28086;SDS011;15392;48.912;8.380;2023-06-04T04:56:38;0.80;;;0.80;;
28086;SDS011;15392;48.912;8.380;2023-06-04T04:59:04;0.85;;;0.85;;
28086;SDS011;15392;48.912;8.380;2023-06-04T05:01:30;0.73;;;0.73;;
28086;SDS011;15392;48.912;8.380;2023-06-04T05:03:55;0.70;;;0.70;;
28086;SDS011;15392;48.912;8.380;2023-06-04T05:06:21;1.00;;;1.00;;
28086;SDS011;15392;48.912;8.380;2023-06-04T05:08:47;0.77;;;0.77;;
28086;SDS011;15392;48.912;8.380;2023-06-04T05:11:13;0.60;;;0.60;;
28086;SDS011;15392;48.912;8.380;2023-06-04T05:13:39;0.57;;;0.57;;
28086;SDS011;15392;48.912;8.380;2023-06-04T05:16:06;0.57;;;0.57;;
28086;SDS011;15392;48.912;8.380;2023-06-04T05:18:42;0.63;;;0.63;;
28086;SDS011;15392;48.912;8.380;2023-06-04T05:21:09;0.60;;;0.60;;
28086;SDS011;15392;48.912;8.380;2023-06-04T05:23:37;0.50;;;0.50;;
28086;SDS011;15392;48.912;8.380;2023-06-04T05:26:04;0.80;;;0.80;;
28086;SDS011;15392;48.912;8.380;2023-06-04T05:28:30;0.60;;;0.60;;
28086;SDS011;15392;48.912;8.380;2023-06-04T05:30:59;2.25;;;0.70;;
28086;SDS011;15392;48.912;8.380;2023-06-04T05:33:26;0.80;;;0.80;;
28086;SDS011;15392;48.912;8.380;2023-06-04T05:35:52;0.70;;;0.70;;
28086;SDS011;15392;48.912;8.380;2023-06-04T05:38:19;0.70;;;0.70;;
28086;SDS011;15392;48.912;8.380;2023-06-04T05:40:46;0.70;;;0.70;;
28086;SDS011;15392;48.912;8.380;2023-06-04T05:43:12;0.90;;;0.90;;
28086;SDS011;15392;48.912;8.380;2023-06-04T05:45:41;0.70;;;0.70;;
28086;SDS011;15392;48.912;8.380;2023-06-04T05:48:07;0.60;;;0.60;;
28086;SDS011;15392;48.912;8.380;2023-06-04T05:50:33;0.70;;;0.70;;
28086;SDS011;15392;48.912;8.380;2023-06-04T05:52:59;0.70;;;0.70;;
28086;SDS011;15392;48.912;8.380;2023-06-04T05:55:25;0.70;;;0.70;;
28086;SDS011;15392;48.912;8.380;2023-06-04T05:57:53;0.60;;;0.60;;
28086;SDS011;15392;48.912;8.380;2023-06-04T06:00:19;0.60;;;0.60;;
28086;SDS011;15392;48.912;8.380;2023-06-04T06:02:45;0.60;;;0.60;;
28086;SDS011;15392;48.912;8.380;2023-06-04T06:05:14;0.60;;;0.60;;
28086;SDS011;15392;48.912;8.380;2023-06-04T06:07:40;0.65;;;0.57;;
28086;SDS011;15392;48.912;8.380;2023-06-04T06:10:07;0.55;;;0.55;;
28086;SDS011;15392;48.912;8.380;2023-06-04T06:12:33;0.60;;;0.60;;
28086;SDS011;15392;48.912;8.380;2023-06-04T06:14:59;0.43;;;0.43;;
28086;SDS011;15392;48.912;8.380;2023-06-04T06:17:25;0.30;;;0.30;;
28086;SDS011;15392;48.912;8.380;2023-06-04T06:19:51;0.60;;;0.60;;
28086;SDS011;15392;48.912;8.380;2023-06-04T06:22:17;0.52;;;0.52;;
28086;SDS011;15392;48.912;8.380;2023-06-04T06:24:43;0.40;;;0.40;;
28086;SDS011;15392;48.912;8.380;2023-06-04T06:27:09;0.75;;;0.47;;
28086;SDS011;15392;48.912;8.380;2023-06-04T06:29:36;0.30;;;0.30;;
28086;SDS011;15392;48.912;8.380;2023-06-04T06:32:04;0.50;;;0.50;;
28086;SDS011;15392;48.912;8.380;2023-06-04T06:34:30;0.57;;;0.57;;
28086;SDS011;15392;48.912;8.380;2023-06-04T06:36:56;0.57;;;0.57;;
28086;SDS011;15392;48.912;8.380;2023-06-04T06:39:22;0.55;;;0.45;;
28086;SDS011;15392;48.912;8.380;2023-06-04T06:41:48;0.40;;;0.40;;
28086;SDS011;15392;48.912;8.380;2023-06-04T06:44:14;0.40;;;0.40;;
28086;SDS011;15392;48.912;8.380;2023-06-04T06:46:39;0.50;;;0.50;;
28086;SDS011;15392;48.912;8.380;2023-06-04T06:49:05;1.05;;;0.50;;
28086;SDS011;15392;48.912;8.380;2023-06-04T06:51:31;0.38;;;0.35;;
28086;SDS011;15392;48.912;8.380;2023-06-04T06:53:56;0.30;;;0.30;;
28086;SDS011;15392;48.912;8.380;2023-06-04T06:56:22;0.47;;;0.38;;
28086;SDS011;15392;48.912;8.380;2023-06-04T06:58:48;0.45;;;0.45;;
28086;SDS011;15392;48.912;8.380;2023-06-04T07:01:14;0.50;;;0.50;;
28086;SDS011;15392;48.912;8.380;2023-06-04T07:03:40;0.50;;;0.50;;
28086;SDS011;15392;48.912;8.380;2023-06-04T07:06:06;0.40;;;0.40;;
28086;SDS011;15392;48.912;8.380;2023-06-04T07:08:32;0.40;;;0.40;;
28086;SDS011;15392;48.912;8.380;2023-06-04T07:10:58;0.60;;;0.60;;
28086;SDS011;15392;48.912;8.380;2023-06-04T07:13:24;0.40;;;0.40;;
28086;SDS011;15392;48.912;8.380;2023-06-04T07:15:50;0.35;;;0.25;;
28086;SDS011;15392;48.912;8.380;2023-06-04T07:18:16;0.20;;;0.20;;
28086;SDS011;15392;48.912;8.380;2023-06-04T07:20:42;0.32;;;0.32;;
28086;SDS011;15392;48.912;8.380;2023-06-04T07:23:08;0.40;;;0.40;;
28086;SDS011;15392;48.912;8.380;2023-06-04T07:25:34;0.50;;;0.50;;
28086;SDS011;15392;48.912;8.380;2023-06-04T07:28:00;0.40;;;0.40;;
28086;SDS011;15392;48.912;8.380;2023-06-04T07:30:28;1.23;;;0.40;;
28086;SDS011;15392;48.912;8.380;2023-06-04T07:32:58;0.40;;;0.40;;
28086;SDS011;15392;48.912;8.380;2023-06-04T07:35:24;0.30;;;0.30;;
28086;SDS011;15392;48.912;8.380;2023-06-04T07:37:50;0.30;;;0.30;;
28086;SDS011;15392;48.912;8.380;2023-06-04T07:40:16;0.20;;;0.20;;
28086;SDS011;15392;48.912;8.380;2023-06-04T07:42:43;0.40;;;0.40;;
28086;SDS011;15392;48.912;8.380;2023-06-04T07:45:10;0.30;;;0.30;;
28086;SDS011;15392;48.912;8.380;2023-06-04T07:47:36;0.30;;;0.30;;
28086;SDS011;15392;48.912;8.380;2023-06-04T07:50:05;0.20;;;0.20;;
28086;SDS011;15392;48.912;8.380;2023-06-04T07:52:34;1.30;;;0.40;;
28086;SDS011;15392;48.912;8.380;2023-06-04T07:54:59;0.20;;;0.20;;
28086;SDS011;15392;48.912;8.380;2023-06-04T07:57:26;0.38;;;0.38;;
28086;SDS011;15392;48.912;8.380;2023-06-04T07:59:52;0.40;;;0.40;;
28086;SDS011;15392;48.912;8.380;2023-06-04T08:02:18;0.30;;;0.30;;
28086;SDS011;15392;48.912;8.380;2023-06-04T08:04:44;0.30;;;0.30;;
28086;SDS011;15392;48.912;8.380;2023-06-04T08:07:11;0.43;;;0.20;;
28086;SDS011;15392;48.912;8.380;2023-06-04T08:09:37;0.30;;;0.30;;
28086;SDS011;15392;48.912;8.380;2023-06-04T08:12:03;0.38;;;0.28;;
28086;SDS011;15392;48.912;8.380;2023-06-04T08:14:30;0.30;;;0.30;;
28086;SDS011;15392;48.912;8.380;2023-06-04T08:16:57;0.30;;;0.30;;
28086;SDS011;15392;48.912;8.380;2023-06-04T08:19:23;0.13;;;0.13;;
28086;SDS011;15392;48.912;8.380;2023-06-04T08:21:49;0.52;;;0.30;;
28086;SDS011;15392;48.912;8.380;2023-06-04T08:24:15;0.32;;;0.32;;
28086;SDS011;15392;48.912;8.380;2023-06-04T08:26:41;0.30;;;0.30;;
28086;SDS011;15392;48.912;8.380;2023-06-04T08:29:07;0.30;;;0.30;;
28086;SDS011;15392;48.912;8.380;2023-06-04T08:31:33;0.40;;;0.30;;
28086;SDS011;15392;48.912;8.380;2023-06-04T08:33:59;0.40;;;0.40;;
28086;SDS011;15392;48.912;8.380;2023-06-04T08:36:26;0.30;;;0.30;;
28086;SDS011;15392;48.912;8.380;2023-06-04T08:38:53;0.40;;;0.40;;
28086;SDS011;15392;48.912;8.380;2023-06-04T08:41:28;0.40;;;0.40;;
28086;SDS011;15392;48.912;8.380;2023-06-04T08:43:57;0.30;;;0.30;;
28086;SDS011;15392;48.912;8.380;2023-06-04T08:46:23;0.40;;;0.40;;
28086;SDS011;15392;48.912;8.380;2023-06-04T08:48:50;0.20;;;0.20;;
28086;SDS011;15392;48.912;8.380;2023-06-04T08:51:16;0.43;;;0.43;;
28086;SDS011;15392;48.912;8.380;2023-06-04T08:53:42;0.30;;;0.30;;
28086;SDS011;15392;48.912;8.380;2023-06-04T08:56:12;0.20;;;0.20;;
28086;SDS011;15392;48.912;8.380;2023-06-04T08:58:38;0.40;;;0.40;;
28086;SDS011;15392;48.912;8.380;2023-06-04T09:01:05;0.52;;;0.30;;
28086;SDS011;15392;48.912;8.380;2023-06-04T09:03:32;0.30;;;0.30;;
28086;SDS011;15392;48.912;8.380;2023-06-04T09:05:58;0.40;;;0.30;;
28086;SDS011;15392;48.912;8.380;2023-06-04T09:08:26;0.52;;;0.52;;
28086;SDS011;15392;48.912;8.380;2023-06-04T09:10:57;0.30;;;0.30;;
28086;SDS011;15392;48.912;8.380;2023-06-04T09:13:24;0.50;;;0.40;;
28086;SDS011;15392;48.912;8.380;2023-06-04T09:16:00;0.45;;;0.45;;
28086;SDS011;15392;48.912;8.380;2023-06-04T09:18:30;0.30;;;0.30;;
28086;SDS011;15392;48.912;8.380;2023-06-04T09:21:15;0.43;;;0.43;;
28086;SDS011;15392;48.912;8.380;2023-06-04T09:23:47;0.30;;;0.30;;
28086;SDS011;15392;48.912;8.380;2023-06-04T09:26:14;0.10;;;0.10;;
28086;SDS011;15392;48.912;8.380;2023-06-04T09:28:44;0.30;;;0.30;;
28086;SDS011;15392;48.912;8.380;2023-06-04T09:31:14;0.30;;;0.30;;
28086;SDS011;15392;48.912;8.380;2023-06-04T09:33:45;0.30;;;0.30;;
28086;SDS011;15392;48.912;8.380;2023-06-04T09:36:13;0.30;;;0.30;;
28086;SDS011;15392;48.912;8.380;2023-06-04T09:38:39;0.20;;;0.20;;
28086;SDS011;15392;48.912;8.380;2023-06-04T09:41:12;0.20;;;0.20;;
28086;SDS011;15392;48.912;8.380;2023-06-04T09:43:46;0.20;;;0.20;;
28086;SDS011;15392;48.912;8.380;2023-06-04T09:46:12;0.20;;;0.20;;
28086;SDS011;15392;48.912;8.380;2023-06-04T09:48:41;0.20;;;0.20;;
28086;SDS011;15392;48.912;8.380;2023-06-04T09:51:11;0.30;;;0.30;;
28086;SDS011;15392;48.912;8.380;2023-06-04T09:53:54;0.28;;;0.20;;
28086;SDS011;15392;48.912;8.380;2023-06-04T09:56:22;0.30;;;0.30;;
28086;SDS011;15392;48.912;8.380;2023-06-04T09:58:53;0.20;;;0.20;;
28086;SDS011;15392;48.912;8.380;2023-06-04T10:01:23;0.30;;;0.30;;
28086;SDS011;15392;48.912;8.380;2023-06-04T10:03:52;0.25;;;0.25;;
28086;SDS011;15392;48.912;8.380;2023-06-04T10:06:20;0.30;;;0.30;;
28086;SDS011;15392;48.912;8.380;2023-06-04T10:08:48;0.30;;;0.30;;
28086;SDS011;15392;48.912;8.380;2023-06-04T10:11:23;0.25;;;0.25;;
28086;SDS011;15392;48.912;8.380;2023-06-04T10:13:59;0.60;;;0.22;;
28086;SDS011;15392;48.912;8.380;2023-06-04T10:16:30;0.30;;;0.30;;
28086;SDS011;15392;48.912;8.380;2023-06-04T10:18:58;0.35;;;0.35;;
28086;SDS011;15392;48.912;8.380;2023-06-04T10:21:26;0.28;;;0.28;;
28086;SDS011;15392;48.912;8.380;2023-06-04T10:23:55;0.30;;;0.30;;
28086;SDS011;15392;48.912;8.380;2023-06-04T10:26:21;0.17;;;0.17;;
28086;SDS011;15392;48.912;8.380;2023-06-04T10:28:48;0.32;;;0.32;;
28086;SDS011;15392;48.912;8.380;2023-06-04T10:31:15;0.35;;;0.35;;
28086;SDS011;15392;48.912;8.380;2023-06-04T10:33:41;0.25;;;0.25;;
28086;SDS011;15392;48.912;8.380;2023-06-04T10:36:17;0.22;;;0.22;;
28086;SDS011;15392;48.912;8.380;2023-06-04T10:38:48;0.30;;;0.30;;
28086;SDS011;15392;48.912;8.380;2023-06-04T10:41:16;0.30;;;0.30;;
28086;SDS011;15392;48.912;8.380;2023-06-04T10:43:50;0.30;;;0.30;;
28086;SDS011;15392;48.912;8.380;2023-06-04T10:46:26;0.20;;;0.20;;
28086;SDS011;15392;48.912;8.380;2023-06-04T10:49:10;0.25;;;0.25;;
28086;SDS011;15392;48.912;8.380;2023-06-04T10:51:37;0.70;;;0.70;;
28086;SDS011;15392;48.912;8.380;2023-06-04T10:54:03;0.70;;;0.70;;
28086;SDS011;15392;48.912;8.380;2023-06-04T10:56:33;0.47;;;0.47;;
28086;SDS011;15392;48.912;8.380;2023-06-04T10:59:00;0.43;;;0.43;;
28086;SDS011;15392;48.912;8.380;2023-06-04T11:01:38;0.30;;;0.30;;
28086;SDS011;15392;48.912;8.380;2023-06-04T11:04:05;0.40;;;0.40;;
28086;SDS011;15392;48.912;8.380;2023-06-04T11:06:31;0.30;;;0.30;;
28086;SDS011;15392;48.912;8.380;2023-06-04T11:09:04;0.30;;;0.30;;
28086;SDS011;15392;48.912;8.380;2023-06-04T11:11:31;0.90;;;0.30;;
28086;SDS011;15392;48.912;8.380;2023-06-04T11:14:07;0.30;;;0.30;;
28086;SDS011;15392;48.912;8.380;2023-06-04T11:16:41;0.30;;;0.30;;
28086;SDS011;15392;48.912;8.380;2023-06-04T11:19:07;0.20;;;0.20;;
28086;SDS011;15392;48.912;8.380;2023-06-04T11:21:35;0.30;;;0.30;;
28086;SDS011;15392;48.912;8.380;2023-06-04T11:24:03;0.30;;;0.30;;
28086;SDS011;15392;48.912;8.380;2023-06-04T11:26:30;0.30;;;0.30;;
28086;SDS011;15392;48.912;8.380;2023-06-04T11:29:00;0.30;;;0.30;;
28086;SDS011;15392;48.912;8.380;2023-06-04T11:31:44;0.38;;;0.38;;
28086;SDS011;15392;48.912;8.380;2023-06-04T11:34:26;0.30;;;0.30;;
28086;SDS011;15392;48.912;8.380;2023-06-04T11:36:54;0.25;;;0.25;;
28086;SDS011;15392;48.912;8.380;2023-06-04T11:39:20;0.40;;;0.40;;
28086;SDS011;15392;48.912;8.380;2023-06-04T11:41:47;0.35;;;0.35;;
28086;SDS011;15392;48.912;8.380;2023-06-04T11:44:14;0.30;;;0.30;;
28086;SDS011;15392;48.912;8.380;2023-06-04T11:46:49;0.30;;;0.30;;
28086;SDS011;15392;48.912;8.380;2023-06-04T11:49:18;0.43;;;0.43;;
28086;SDS011;15392;48.912;8.380;2023-06-04T11:51:47;0.43;;;0.43;;
28086;SDS011;15392;48.912;8.380;2023-06-04T11:54:18;0.30;;;0.30;;
28086;SDS011;15392;48.912;8.380;2023-06-04T11:56:46;0.30;;;0.30;;
28086;SDS011;15392;48.912;8.380;2023-06-04T11:59:15;0.30;;;0.30;;
28086;SDS011;15392;48.912;8.380;2023-06-04T12:01:42;0.40;;;0.40;;
28086;SDS011;15392;48.912;8.380;2023-06-04T12:04:17;0.40;;;0.40;;
28086;SDS011;15392;48.912;8.380;2023-06-04T12:06:54;0.38;;;0.38;;
28086;SDS011;15392;48.912;8.380;2023-06-04T12:09:23;0.50;;;0.50;;
28086;SDS011;15392;48.912;8.380;2023-06-04T12:11:57;0.40;;;0.40;;
28086;SDS011;15392;48.912;8.380;2023-06-04T12:14:25;0.50;;;0.50;;
28086;SDS011;15392;48.912;8.380;2023-06-04T12:16:57;0.40;;;0.40;;
28086;SDS011;15392;48.912;8.380;2023-06-04T12:19:24;0.40;;;0.40;;
28086;SDS011;15392;48.912;8.380;2023-06-04T12:22:04;0.20;;;0.20;;
28086;SDS011;15392;48.912;8.380;2023-06-04T12:24:32;0.22;;;0.22;;
28086;SDS011;15392;48.912;8.380;2023-06-04T12:27:12;0.30;;;0.30;;
28086;SDS011;15392;48.912;8.380;2023-06-04T12:29:38;0.40;;;0.40;;
28086;SDS011;15392;48.912;8.380;2023-06-04T12:32:05;0.40;;;0.40;;
28086;SDS011;15392;48.912;8.380;2023-06-04T12:34:33;0.30;;;0.30;;
28086;SDS011;15392;48.912;8.380;2023-06-04T12:37:00;0.30;;;0.30;;
28086;SDS011;15392;48.912;8.380;2023-06-04T12:39:28;0.35;;;0.35;;
28086;SDS011;15392;48.912;8.380;2023-06-04T12:41:55;0.40;;;0.40;;
28086;SDS011;15392;48.912;8.380;2023-06-04T12:44:21;0.90;;;0.40;;
28086;SDS011;15392;48.912;8.380;2023-06-04T12:46:47;0.50;;;0.50;;
28086;SDS011;15392;48.912;8.380;2023-06-04T12:49:12;0.30;;;0.30;;
28086;SDS011;15392;48.912;8.380;2023-06-04T12:51:39;0.40;;;0.40;;
28086;SDS011;15392;48.912;8.380;2023-06-04T12:54:05;0.40;;;0.40;;
28086;SDS011;15392;48.912;8.380;2023-06-04T12:56:31;0.32;;;0.32;;
28086;SDS011;15392;48.912;8.380;2023-06-04T12:59:00;0.50;;;0.50;;
28086;SDS011;15392;48.912;8.380;2023-06-04T13:01:26;0.47;;;0.38;;
28086;SDS011;15392;48.912;8.380;2023-06-04T13:03:52;0.30;;;0.30;;
28086;SDS011;15392;48.912;8.380;2023-06-04T13:06:17;0.30;;;0.30;;
28086;SDS011;15392;48.912;8.380;2023-06-04T13:08:43;0.40;;;0.40;;
28086;SDS011;15392;48.912;8.380;2023-06-04T13:13:39;0.30;;;0.30;;
28086;SDS011;15392;48.912;8.380;2023-06-04T13:16:05;0.30;;;0.30;;
28086;SDS011;15392;48.912;8.380;2023-06-04T13:18:33;0.40;;;0.40;;
28086;SDS011;15392;48.912;8.380;2023-06-04T13:20:59;0.38;;;0.38;;
28086;SDS011;15392;48.912;8.380;2023-06-04T13:23:28;0.30;;;0.30;;
28086;SDS011;15392;48.912;8.380;2023-06-04T13:25:54;0.30;;;0.30;;
28086;SDS011;15392;48.912;8.380;2023-06-04T13:28:20;0.38;;;0.38;;
28086;SDS011;15392;48.912;8.380;2023-06-04T13:30:45;0.55;;;0.55;;
28086;SDS011;15392;48.912;8.380;2023-06-04T13:33:11;0.30;;;0.30;;
28086;SDS011;15392;48.912;8.380;2023-06-04T13:35:37;0.55;;;0.55;;
28086;SDS011;15392;48.912;8.380;2023-06-04T13:38:04;0.47;;;0.47;;
28086;SDS011;15392;48.912;8.380;2023-06-04T13:40:32;0.35;;;0.35;;
28086;SDS011;15392;48.912;8.380;2023-06-04T13:43:00;0.50;;;0.50;;
28086;SDS011;15392;48.912;8.380;2023-06-04T13:45:27;0.30;;;0.30;;
28086;SDS011;15392;48.912;8.380;2023-06-04T13:47:53;0.50;;;0.50;;
28086;SDS011;15392;48.912;8.380;2023-06-04T13:50:20;1.05;;;0.40;;
28086;SDS011;15392;48.912;8.380;2023-06-04T13:52:46;0.43;;;0.43;;
28086;SDS011;15392;48.912;8.380;2023-06-04T13:55:12;0.50;;;0.50;;
28086;SDS011;15392;48.912;8.380;2023-06-04T13:57:38;0.40;;;0.40;;
28086;SDS011;15392;48.912;8.380;2023-06-04T14:00:05;0.40;;;0.40;;
28086;SDS011;15392;48.912;8.380;2023-06-04T14:02:33;0.40;;;0.40;;
28086;SDS011;15392;48.912;8.380;2023-06-04T14:05:00;0.40;;;0.40;;
28086;SDS011;15392;48.912;8.380;2023-06-04T14:07:25;0.55;;;0.55;;
28086;SDS011;15392;48.912;8.380;2023-06-04T14:09:51;0.50;;;0.50;;
28086;SDS011;15392;48.912;8.380;2023-06-04T14:12:22;0.40;;;0.40;;
28086;SDS011;15392;48.912;8.380;2023-06-04T14:14:50;0.50;;;0.50;;
28086;SDS011;15392;48.912;8.380;2023-06-04T14:17:18;0.38;;;0.38;;
28086;SDS011;15392;48.912;8.380;2023-06-04T14:19:44;0.40;;;0.40;;
28086;SDS011;15392;48.912;8.380;2023-06-04T14:22:13;0.40;;;0.40;;
28086;SDS011;15392;48.912;8.380;2023-06-04T14:24:40;0.50;;;0.50;;
28086;SDS011;15392;48.912;8.380;2023-06-04T14:27:06;0.60;;;0.60;;
28086;SDS011;15392;48.912;8.380;2023-06-04T14:29:35;0.50;;;0.50;;
28086;SDS011;15392;48.912;8.380;2023-06-04T14:32:03;0.40;;;0.40;;
28086;SDS011;15392;48.912;8.380;2023-06-04T14:34:30;0.55;;;0.55;;
28086;SDS011;15392;48.912;8.380;2023-06-04T14:36:57;0.50;;;0.50;;
28086;SDS011;15392;48.912;8.380;2023-06-04T14:39:25;0.38;;;0.38;;
28086;SDS011;15392;48.912;8.380;2023-06-04T14:41:56;0.40;;;0.40;;
28086;SDS011;15392;48.912;8.380;2023-06-04T14:44:22;0.50;;;0.50;;
28086;SDS011;15392;48.912;8.380;2023-06-04T14:46:48;0.50;;;0.50;;
28086;SDS011;15392;48.912;8.380;2023-06-04T14:49:15;0.50;;;0.50;;
28086;SDS011;15392;48.912;8.380;2023-06-04T14:51:41;0.30;;;0.30;;
28086;SDS011;15392;48.912;8.380;2023-06-04T14:54:07;0.38;;;0.38;;